Aviation

FTHA31 MTPP 222200
TAF MTPP 222200Z 2300/2400 11014KT 9999 SCT027
PROB30 TEMPO 2300/2304 4800 TSRA ST024CB
BECMG 2305/2309 VRB02KT 8000 NSW FEW020
FM231000 10008KT 9999 FEW024=